createdAt,value
2022-11-16T10:31:56.158Z,82.06
2022-11-16T10:33:11.311Z,81.79
2022-11-16T10:34:17.408Z,81.74
2022-11-16T10:35:45.043Z,81.51
2022-11-16T10:36:48.259Z,81.46
2022-11-16T10:37:52.216Z,81.32
2022-11-16T10:38:56.908Z,81.46
2022-11-16T10:40:03.711Z,81.27
2022-11-16T10:41:19.287Z,81.27
2022-11-16T10:42:34.756Z,81.26
2022-11-16T10:43:38.208Z,81.10
2022-11-16T10:45:00.140Z,81.00
2022-11-16T10:46:06.920Z,80.97
2022-11-16T10:47:16.585Z,80.93
2022-11-16T10:48:42.094Z,80.79
2022-11-16T10:49:55.548Z,80.78
2022-11-16T10:50:58.519Z,80.78
2022-11-16T10:52:01.863Z,80.54
2022-11-16T10:53:05.164Z,80.53
2022-11-16T10:54:15.428Z,80.56
2022-11-16T10:55:20.877Z,80.42
2022-11-16T10:56:27.514Z,80.44
2022-11-16T10:57:50.462Z,80.40
2022-11-16T10:59:02.834Z,80.30
2022-11-16T11:00:12.589Z,80.23
2022-11-16T11:01:13.986Z,80.03
2022-11-16T11:02:26.678Z,80.06
2022-11-16T11:03:31.954Z,80.10
2022-11-16T11:04:35.506Z,80.10
2022-11-16T11:05:51.783Z,79.91
2022-11-16T11:06:57.846Z,79.87
2022-11-16T11:08:07.326Z,79.91
2022-11-16T11:09:26.291Z,79.85
2022-11-16T11:10:38.774Z,79.75
2022-11-16T11:12:00.367Z,79.79
2022-11-16T11:13:16.044Z,79.76
2022-11-16T11:15:35.119Z,79.79
2022-11-16T11:16:40.580Z,79.67
2022-11-16T11:17:47.791Z,79.67
2022-11-16T11:18:50.987Z,79.56
2022-11-16T11:20:00.403Z,79.60
2022-11-16T11:21:22.363Z,79.54
2022-11-16T11:22:25.747Z,79.49
2022-11-16T11:23:29.030Z,79.38
2022-11-16T11:24:47.487Z,79.42
2022-11-16T11:25:42.486Z,79.37
2022-11-16T11:26:54.934Z,79.43
2022-11-16T11:28:27.899Z,79.45
2022-11-16T11:29:33.696Z,79.37
2022-11-16T11:30:36.763Z,79.38
2022-11-16T11:31:43.481Z,79.43
2022-11-16T11:32:47.364Z,79.32
2022-11-16T11:33:53.460Z,79.38
2022-11-16T11:34:59.873Z,79.32
2022-11-16T11:36:09.068Z,79.23
2022-11-16T11:37:18.489Z,79.15
2022-11-16T11:38:22.193Z,79.16
2022-11-16T11:39:36.603Z,79.02
2022-11-16T11:40:41.064Z,79.06
2022-11-16T11:41:46.428Z,79.02
2022-11-16T11:42:58.607Z,79.09
2022-11-16T11:44:04.907Z,79.04
2022-11-16T11:45:10.785Z,79.14
2022-11-16T11:46:20.367Z,79.05
2022-11-16T11:48:00.715Z,79.01
2022-11-16T11:48:53.580Z,79.00
2022-11-16T11:50:08.852Z,78.99
2022-11-16T11:51:33.323Z,78.90
2022-11-16T11:52:42.897Z,78.86
2022-11-16T11:53:49.429Z,78.87
2022-11-16T11:54:54.556Z,78.99
2022-11-16T11:55:59.765Z,78.96
2022-11-16T11:57:05.498Z,79.02
2022-11-16T11:58:14.975Z,78.92
2022-11-16T11:59:21.405Z,78.98
2022-11-16T12:00:25.562Z,78.96
2022-11-16T12:01:40.835Z,78.94
2022-11-16T12:03:07.448Z,78.92
2022-11-16T12:04:26.162Z,78.92
2022-11-16T12:05:52.692Z,78.86
2022-11-16T12:07:08.218Z,78.85
2022-11-16T12:08:30.135Z,78.94
2022-11-16T12:09:48.695Z,78.95
2022-11-16T12:10:58.287Z,79.03
2022-11-16T12:12:14.618Z,79.03
2022-11-16T12:13:43.750Z,78.98
2022-11-16T12:15:02.186Z,79.01
2022-11-16T12:16:17.338Z,78.95
2022-11-16T12:17:32.717Z,79.00
2022-11-16T12:19:02.041Z,78.95
2022-11-16T12:20:40.397Z,79.00
2022-11-16T12:22:02.011Z,79.06
2022-11-16T12:23:44.897Z,79.10
2022-11-16T12:24:56.358Z,79.14
2022-11-16T12:26:32.976Z,79.03
2022-11-16T12:28:02.260Z,79.03
2022-11-16T12:29:30.077Z,79.19
2022-11-16T12:30:35.994Z,79.21
2022-11-16T12:31:45.044Z,79.21
2022-11-16T12:33:04.029Z,79.12
2022-11-16T12:34:13.901Z,79.15
2022-11-16T12:35:35.285Z,79.16
2022-11-16T12:36:53.924Z,79.07
2022-11-16T12:38:12.639Z,79.07
2022-11-16T12:39:25.325Z,79.06
2022-11-16T12:40:50.312Z,79.06
2022-11-16T12:42:16.351Z,79.08
2022-11-16T12:43:37.970Z,79.03
2022-11-16T12:45:05.953Z,79.09
2022-11-16T12:46:41.344Z,79.04
2022-11-16T12:47:53.737Z,78.99
2022-11-16T12:49:00.641Z,79.13
2022-11-16T12:50:31.596Z,79.09
2022-11-16T12:51:47.572Z,79.14
2022-11-16T12:53:15.366Z,79.08
2022-11-16T12:54:34.046Z,79.12
2022-11-16T12:55:52.532Z,79.18
2022-11-16T12:57:16.897Z,79.20
2022-11-16T12:58:26.193Z,79.13
2022-11-16T12:59:41.776Z,79.22
2022-11-16T13:00:59.000Z,79.13
2022-11-16T13:02:11.413Z,79.22
2022-11-16T13:04:39.764Z,79.11
2022-11-16T13:05:58.485Z,79.13
2022-11-16T13:07:11.597Z,79.20
2022-11-16T13:08:34.921Z,79.12
2022-11-16T13:09:44.195Z,79.08
2022-11-16T13:10:50.655Z,79.09
2022-11-16T13:11:59.633Z,79.07
2022-11-16T13:13:35.012Z,79.09
2022-11-16T13:14:23.978Z,79.07
2022-11-16T13:15:30.596Z,79.12
2022-11-16T13:16:34.666Z,79.01
2022-11-16T13:17:39.474Z,79.03
2022-11-16T13:18:43.851Z,79.01
2022-11-16T13:19:53.305Z,78.94
2022-11-16T13:21:02.935Z,78.88
2022-11-16T13:22:19.312Z,78.90
2022-11-16T13:23:42.327Z,78.76
2022-11-16T13:24:54.930Z,78.76
2022-11-16T13:26:10.555Z,78.84
2022-11-16T13:27:17.225Z,78.79
2022-11-16T13:28:32.134Z,78.87
2022-11-16T13:29:59.775Z,78.81
2022-11-16T13:31:14.830Z,78.89
2022-11-16T13:32:21.288Z,78.87
2022-11-16T13:33:51.375Z,78.78
2022-11-16T13:34:54.920Z,78.87
2022-11-16T13:35:57.972Z,78.81
2022-11-16T13:37:01.076Z,78.83
2022-11-16T13:38:10.636Z,78.84
2022-11-16T13:39:22.316Z,78.87
2022-11-16T13:40:26.837Z,78.82
2022-11-16T13:41:33.487Z,78.83
2022-11-16T13:42:43.214Z,78.81
2022-11-16T18:36:22.458Z,89.13
2022-11-16T18:37:25.539Z,88.91
2022-11-16T18:38:29.131Z,88.69
2022-11-16T18:39:32.094Z,88.48
2022-11-16T18:40:35.185Z,88.35
2022-11-16T18:41:41.826Z,88.22
2022-11-16T18:42:44.836Z,88.12
2022-11-16T18:43:59.560Z,88.03
2022-11-16T18:45:02.576Z,87.96
2022-11-16T18:46:06.228Z,87.76
2022-11-16T18:47:09.306Z,87.70
2022-11-16T18:48:12.414Z,87.63
2022-11-16T18:49:15.568Z,87.53
2022-11-16T18:50:25.522Z,87.45
2022-11-16T18:51:26.872Z,87.30
2022-11-16T18:52:29.984Z,87.13
2022-11-16T18:53:33.695Z,87.07
2022-11-16T18:54:38.068Z,86.96
2022-11-16T18:55:41.205Z,86.89
2022-11-16T18:56:44.319Z,86.83
2022-11-16T18:57:47.825Z,86.79
2022-11-16T18:58:52.667Z,86.63
2022-11-16T18:59:57.370Z,86.60
2022-11-16T19:01:03.288Z,86.37
2022-11-16T19:02:06.658Z,86.35
2022-11-16T19:03:11.405Z,86.18
2022-11-16T19:04:14.785Z,86.17
2022-11-16T19:05:18.080Z,86.09
2022-11-16T19:06:22.540Z,86.03
2022-11-16T19:07:25.720Z,85.87
2022-11-16T19:08:29.696Z,85.82
2022-11-16T19:09:33.048Z,85.74
2022-11-16T19:10:39.389Z,85.67
2022-11-16T19:11:42.398Z,85.66
2022-11-16T19:12:45.512Z,85.58
2022-11-16T19:13:54.725Z,85.45
2022-11-16T19:14:57.879Z,85.35
2022-11-16T19:16:01.155Z,85.30
2022-11-16T19:17:04.766Z,85.22
2022-11-16T19:18:20.999Z,85.21
2022-11-16T19:19:12.929Z,85.14
2022-11-16T19:20:16.457Z,85.04
2022-11-16T19:21:21.258Z,85.01
2022-11-16T19:22:24.343Z,84.92
2022-11-16T19:23:27.353Z,85.00
2022-11-16T19:24:30.671Z,84.89
2022-11-16T19:25:33.877Z,84.79
2022-11-16T19:26:37.083Z,84.72
2022-11-16T19:27:40.183Z,84.63
2022-11-16T19:28:48.036Z,84.61
2022-11-16T19:29:51.278Z,84.59
2022-11-16T19:30:54.500Z,84.41
2022-11-16T19:31:57.753Z,84.35
2022-11-16T19:33:01.333Z,84.42
2022-11-16T19:34:07.126Z,84.31
2022-11-16T19:35:11.675Z,84.33
2022-11-16T19:36:17.488Z,84.19
2022-11-16T19:37:20.817Z,84.10
2022-11-16T19:38:24.190Z,83.98
2022-11-16T19:39:27.360Z,83.95
2022-11-16T19:40:30.344Z,83.85
2022-11-16T19:41:33.322Z,83.91
2022-11-16T19:42:36.545Z,83.75
2022-11-16T19:43:39.947Z,83.80
2022-11-16T19:44:43.046Z,83.71
2022-11-16T19:45:46.215Z,83.68
2022-11-16T19:46:49.461Z,83.59
2022-11-16T19:47:52.822Z,83.64
2022-11-16T19:48:56.212Z,83.64
2022-11-16T19:49:59.521Z,83.60
2022-11-16T19:51:11.028Z,83.44
2022-11-16T19:52:14.248Z,83.48
2022-11-16T19:53:17.440Z,83.43
2022-11-16T19:54:20.471Z,83.38
2022-11-16T19:55:23.540Z,83.32
2022-11-16T19:56:26.475Z,83.26
2022-11-16T19:57:29.647Z,83.28
2022-11-16T19:58:37.757Z,83.27
2022-11-16T19:59:40.960Z,83.20
2022-11-16T20:00:44.468Z,83.16
2022-11-16T20:01:47.522Z,83.08
2022-11-16T20:02:56.879Z,83.00
2022-11-16T20:04:02.800Z,82.99
2022-11-16T20:05:06.789Z,82.92
2022-11-16T20:06:13.104Z,82.94
2022-11-16T20:07:17.597Z,82.98
2022-11-16T20:08:20.767Z,82.97
2022-11-16T20:09:23.960Z,82.82
2022-11-16T20:10:28.831Z,82.74
2022-11-16T20:11:36.032Z,82.66
2022-11-16T20:12:38.960Z,82.62
2022-11-16T20:13:42.214Z,82.53
2022-11-16T20:14:45.337Z,82.49
2022-11-16T20:15:48.393Z,82.50
2022-11-16T20:16:52.888Z,82.47
2022-11-16T20:17:55.966Z,82.54
2022-11-16T20:18:59.139Z,82.43
2022-11-16T20:20:02.160Z,82.50
2022-11-16T20:21:05.859Z,82.47
2022-11-16T20:22:09.026Z,82.37
2022-11-16T20:23:14.382Z,82.41
2022-11-16T20:24:17.838Z,82.25
2022-11-16T20:25:20.940Z,82.36
2022-11-16T20:26:25.646Z,82.19
2022-11-16T20:27:28.664Z,82.30
2022-11-16T20:28:36.561Z,82.22
2022-11-16T20:29:39.592Z,82.15
2022-11-16T20:30:47.554Z,82.04
2022-11-16T20:31:50.583Z,82.04
2022-11-16T20:32:53.664Z,81.95
2022-11-16T20:33:59.068Z,81.94
2022-11-16T20:35:02.200Z,81.92
2022-11-16T20:36:08.312Z,81.79
2022-11-16T20:37:11.375Z,81.78
2022-11-16T20:38:14.522Z,81.84
2022-11-16T20:39:19.777Z,81.91
2022-11-16T20:40:22.653Z,81.84
2022-11-16T20:41:30.583Z,81.84
2022-11-16T20:42:33.732Z,81.88
2022-11-16T20:43:38.737Z,81.94
2022-11-16T20:44:41.787Z,81.96
2022-11-16T20:45:44.871Z,81.86
2022-11-16T20:46:50.042Z,81.94
2022-11-16T20:47:52.973Z,81.85
2022-11-16T20:48:56.624Z,81.82
2022-11-16T20:49:59.589Z,81.79
2022-11-16T20:51:03.358Z,81.78
2022-11-16T20:52:06.372Z,81.75
2022-11-16T20:53:09.287Z,81.72
2022-11-16T20:54:13.340Z,81.74
2022-11-16T20:55:16.565Z,81.66
2022-11-16T20:56:20.135Z,81.68
2022-11-16T20:57:23.304Z,81.65
2022-11-16T20:58:26.315Z,81.61
2022-11-16T20:59:29.459Z,81.65
2022-11-16T21:00:32.478Z,81.57
2022-11-16T21:01:36.102Z,81.67
2022-11-16T21:02:39.235Z,81.56
2022-11-16T21:03:43.944Z,81.62
2022-11-16T21:04:46.955Z,81.58
2022-11-16T21:05:51.672Z,81.64
2022-11-16T21:06:54.758Z,81.60
2022-11-16T21:07:58.897Z,81.51
2022-11-16T21:09:03.339Z,81.60
2022-11-16T21:10:19.611Z,81.43
2022-11-16T21:11:26.529Z,81.41
2022-11-16T21:12:48.158Z,81.38
2022-11-16T21:14:09.945Z,81.40
2022-11-16T21:15:13.275Z,81.33
2022-11-16T21:16:16.346Z,81.36
2022-11-16T21:17:19.314Z,81.34
2022-11-16T21:18:26.486Z,81.37
2022-11-16T21:19:27.394Z,81.43
2022-11-16T21:20:30.997Z,81.33
2022-11-16T21:21:34.418Z,81.37
2022-11-16T21:22:37.312Z,81.34
2022-11-16T21:23:47.300Z,81.29
2022-11-16T21:24:50.414Z,81.34
2022-11-16T21:25:53.284Z,81.34
2022-11-16T21:26:56.252Z,81.37
2022-11-16T21:27:59.240Z,81.36
2022-11-16T21:29:03.054Z,81.37
2022-11-16T21:30:07.085Z,81.30
2022-11-16T21:31:12.778Z,81.39
2022-11-16T21:32:15.790Z,81.37
2022-11-16T21:33:18.886Z,81.30
2022-11-16T21:34:23.918Z,81.27
2022-11-16T21:35:27.051Z,81.26
2022-11-16T21:36:32.122Z,81.25
2022-11-16T21:37:35.140Z,81.21
2022-11-16T21:38:38.433Z,81.23
2022-11-16T21:39:41.343Z,81.27
2022-11-16T21:40:44.294Z,81.18
2022-11-16T21:41:47.189Z,81.32
2022-11-16T21:42:51.482Z,81.23
2022-11-16T21:43:54.633Z,81.21
2022-11-16T21:44:57.595Z,81.18
2022-11-16T21:46:02.721Z,81.24
2022-11-16T21:47:05.710Z,81.23
2022-11-16T21:48:08.749Z,81.11
2022-11-16T21:49:11.669Z,81.11
2022-11-16T21:50:31.293Z,81.08
2022-11-16T21:51:21.702Z,81.04
2022-11-16T21:52:24.904Z,81.05
2022-11-16T21:53:27.945Z,81.02
2022-11-16T21:54:42.279Z,81.02
2022-11-16T21:55:48.103Z,80.93
2022-11-16T21:56:50.975Z,80.94
2022-11-16T21:57:53.928Z,80.95
2022-11-16T21:58:57.181Z,80.88
2022-11-16T22:00:00.731Z,81.02
2022-11-16T22:01:03.714Z,80.93
2022-11-16T22:02:06.806Z,80.93
2022-11-16T22:03:09.793Z,81.04
2022-11-16T22:04:31.031Z,81.11
2022-11-16T22:05:52.226Z,80.99
2022-11-16T22:07:13.994Z,80.98
2022-11-16T22:08:17.007Z,81.07
2022-11-16T22:09:20.405Z,80.97
2022-11-16T22:10:23.566Z,81.08
2022-11-16T22:11:41.446Z,81.09
2022-11-16T22:12:44.567Z,81.10
2022-11-16T22:13:48.844Z,81.01
2022-11-16T22:14:51.859Z,81.00
2022-11-16T22:15:54.937Z,81.02
2022-11-16T22:16:58.064Z,80.98
2022-11-16T22:18:01.124Z,81.06
2022-11-16T22:19:04.148Z,80.95
2022-11-16T22:20:08.606Z,81.09
2022-11-16T22:21:11.999Z,81.08
2022-11-16T22:22:14.971Z,81.00
2022-11-16T22:23:22.656Z,80.91
2022-11-16T22:24:23.404Z,80.84
2022-11-16T22:25:26.702Z,80.90
2022-11-16T22:26:29.691Z,80.97
2022-11-16T22:27:42.394Z,80.84
2022-11-16T22:28:38.820Z,80.83
2022-11-16T22:29:41.839Z,80.82
2022-11-16T22:30:50.085Z,80.83
2022-11-16T22:31:49.761Z,80.86
2022-11-16T22:32:52.753Z,80.89
2022-11-16T22:33:55.761Z,80.88
2022-11-16T22:34:58.871Z,80.84
2022-11-16T22:36:02.899Z,80.82
2022-11-16T22:37:05.932Z,80.77
2022-11-16T22:38:08.859Z,80.75
2022-11-16T22:39:12.047Z,80.78
2022-11-16T22:40:17.851Z,80.69
2022-11-16T22:41:20.314Z,80.77
2022-11-16T22:42:23.163Z,80.69
2022-11-16T22:43:28.145Z,80.70
2022-11-16T22:44:31.158Z,80.60
2022-11-16T22:45:34.133Z,80.62
2022-11-16T22:46:37.189Z,80.70
2022-11-16T22:47:40.162Z,80.78
2022-11-16T22:48:44.411Z,80.67
2022-11-16T22:49:47.550Z,80.71
2022-11-16T22:50:50.620Z,80.80
2022-11-16T22:51:53.654Z,80.69
2022-11-16T22:52:58.348Z,80.76
2022-11-16T22:54:04.016Z,80.81
2022-11-16T22:55:07.542Z,80.85
2022-11-16T22:56:11.128Z,80.80
2022-11-16T22:57:14.103Z,80.90
2022-11-16T22:58:17.103Z,80.81
2022-11-16T22:59:20.040Z,80.79
2022-11-16T23:00:23.303Z,80.86
2022-11-16T23:01:26.343Z,80.85
2022-11-16T23:02:29.531Z,80.75
2022-11-16T23:03:33.043Z,80.78
2022-11-16T23:04:36.250Z,80.83
2022-11-16T23:05:39.354Z,80.95
2022-11-16T23:06:42.489Z,80.94
2022-11-16T23:07:45.548Z,80.88
2022-11-16T23:08:48.676Z,80.76
2022-11-16T23:09:51.701Z,80.88
2022-11-16T23:11:25.279Z,80.88
2022-11-16T23:12:46.448Z,80.81
2022-11-16T23:14:08.666Z,80.80
2022-11-16T23:15:30.763Z,80.92
2022-11-16T23:16:34.475Z,80.87
2022-11-16T23:17:37.488Z,81.00
2022-11-16T23:18:40.455Z,80.97
2022-11-16T23:20:02.101Z,81.00
2022-11-16T23:21:23.815Z,81.07
2022-11-16T23:22:28.716Z,80.97
2022-11-16T23:23:50.062Z,81.04
2022-11-16T23:25:11.312Z,80.99
2022-11-16T23:26:39.436Z,81.05
2022-11-16T23:27:52.276Z,81.01
2022-11-16T23:28:55.305Z,81.07
2022-11-16T23:30:09.220Z,81.07
2022-11-16T23:31:09.034Z,81.01
2022-11-16T23:32:12.093Z,80.99
2022-11-16T23:33:15.263Z,80.97
2022-11-16T23:34:19.462Z,80.96
2022-11-16T23:35:22.798Z,80.96
2022-11-16T23:36:25.910Z,81.09
2022-11-16T23:37:28.904Z,81.00
2022-11-16T23:38:31.964Z,81.08
2022-11-16T23:39:34.917Z,80.97
2022-11-16T23:40:39.347Z,81.01
2022-11-16T23:42:00.677Z,80.95
2022-11-16T23:43:23.152Z,80.89
2022-11-16T23:44:26.323Z,80.87
2022-11-16T23:45:29.427Z,80.89
2022-11-16T23:46:33.392Z,80.92
2022-11-16T23:47:36.314Z,80.97
2022-11-16T23:48:39.400Z,80.93
2022-11-16T23:49:42.332Z,80.93
2022-11-16T23:50:45.650Z,80.90
2022-11-16T23:51:48.715Z,80.96
2022-11-16T23:52:51.888Z,80.84
2022-11-16T23:53:55.553Z,80.87
2022-11-16T23:54:58.629Z,80.84
2022-11-16T23:56:05.824Z,80.80
2022-11-16T23:57:07.642Z,80.85
2022-11-16T23:58:14.589Z,80.94
2022-11-16T23:59:17.675Z,80.90
